createdAt,value
2022-09-21T00:01:28.697Z,100770.94
2022-09-21T00:03:33.382Z,100775.39
2022-09-21T00:05:37.846Z,100774.98
2022-09-21T00:07:42.243Z,100771.92
2022-09-21T00:09:46.648Z,100772.72
2022-09-21T00:11:53.265Z,100769.83
2022-09-21T00:14:01.998Z,100768.08
2022-09-21T00:16:06.402Z,100774.14
2022-09-21T00:18:11.196Z,100779.34
2022-09-21T00:20:15.598Z,100777.63
2022-09-21T00:22:19.995Z,100778.65
2022-09-21T00:24:24.366Z,100777.14
2022-09-21T00:26:28.768Z,100781.7
2022-09-21T00:28:33.137Z,100778.37
2022-09-21T00:30:37.542Z,100782.78
2022-09-21T00:32:41.906Z,100783.73
2022-09-21T00:34:46.369Z,100782.97
2022-09-21T00:36:50.782Z,100785.4
2022-09-21T00:38:55.239Z,100788.7
2022-09-21T00:40:59.666Z,100790.36
2022-09-21T00:43:04.098Z,100789.81
2022-09-21T00:45:08.534Z,100796.34
2022-09-21T00:47:12.908Z,100793.67
2022-09-21T00:49:17.255Z,100796.66
2022-09-21T00:51:21.602Z,100799.31
2022-09-21T00:53:25.936Z,100799.88
2022-09-21T00:55:30.298Z,100801.27
2022-09-21T00:57:34.660Z,100798.77
2022-09-21T00:59:39.014Z,100797.27
2022-09-21T01:01:43.437Z,100796.58
2022-09-21T01:03:47.933Z,100803.27
2022-09-21T01:05:52.292Z,100802.94
2022-09-21T01:07:56.655Z,100801.26
2022-09-21T01:10:01.024Z,100800.05
2022-09-21T01:12:05.383Z,100806.95
2022-09-21T01:14:09.756Z,100807.41
2022-09-21T01:16:14.276Z,100808.59
2022-09-21T01:18:18.706Z,100807.03
2022-09-21T01:20:23.054Z,100809.98
2022-09-21T01:22:27.454Z,100804.19
2022-09-21T01:24:31.797Z,100804.45
2022-09-21T01:26:36.176Z,100808.77
2022-09-21T01:28:40.512Z,100814.2
2022-09-21T01:30:50.002Z,100812.97
2022-09-21T01:32:54.377Z,100817.41
2022-09-21T01:34:58.740Z,100821.45
2022-09-21T01:37:03.108Z,100821.68
2022-09-21T01:39:07.450Z,100825.94
2022-09-21T01:41:11.812Z,100824.33
2022-09-21T01:43:16.164Z,100822.75
2022-09-21T01:45:20.503Z,100826.06
2022-09-21T01:47:25.000Z,100830.63
2022-09-21T01:49:29.360Z,100830.05
2022-09-21T01:51:33.698Z,100830.03
2022-09-21T01:53:38.096Z,100829.66
2022-09-21T01:55:42.443Z,100829.7
2022-09-21T01:57:46.794Z,100826.09
2022-09-21T01:59:51.166Z,100824.94
2022-09-21T02:01:55.553Z,100830.73
2022-09-21T02:04:00.023Z,100831.91
2022-09-21T02:06:04.419Z,100828.63
2022-09-21T02:08:08.726Z,100829.75
2022-09-21T02:10:13.078Z,100834.61
2022-09-21T02:12:20.368Z,100834.27
2022-09-21T02:14:24.715Z,100837.55
2022-09-21T02:16:29.150Z,100838.72
2022-09-21T02:18:33.722Z,100840.46
2022-09-21T02:20:38.218Z,100840.05
2022-09-21T02:22:42.554Z,100839.98
2022-09-21T02:24:46.923Z,100835.11
2022-09-21T02:26:51.279Z,100840.89
2022-09-21T02:28:55.734Z,100838
2022-09-21T02:31:00.363Z,100841.25
2022-09-21T02:33:04.795Z,100839.47
2022-09-21T02:35:09.179Z,100844.3
2022-09-21T02:37:13.552Z,100847.98
2022-09-21T02:39:18.040Z,100849.25
2022-09-21T02:41:22.386Z,100849.96
2022-09-21T02:43:26.742Z,100847.16
2022-09-21T02:45:31.123Z,100854.45
2022-09-21T02:47:35.564Z,100854.04
2022-09-21T02:49:39.952Z,100855.38
2022-09-21T02:51:44.288Z,100859.39
2022-09-21T02:53:48.643Z,100862.36
2022-09-21T02:55:57.324Z,100862.95
2022-09-21T02:58:01.644Z,100864.81
2022-09-21T03:00:06.002Z,100862.27
2022-09-21T03:02:10.549Z,100865.39
2022-09-21T03:04:15.037Z,100867.89
2022-09-21T03:06:19.403Z,100870.81
2022-09-21T03:08:23.812Z,100872.05
2022-09-21T03:10:28.148Z,100871.28
2022-09-21T03:12:32.533Z,100872.52
2022-09-21T03:14:36.905Z,100871.64
2022-09-21T03:16:41.259Z,100877.41
2022-09-21T03:18:45.656Z,100879.66
2022-09-21T03:20:50.070Z,100873.38
2022-09-21T03:22:54.482Z,100877.49
2022-09-21T03:24:58.849Z,100870.8
2022-09-21T03:27:03.184Z,100873.64
2022-09-21T03:29:07.904Z,100873.38
2022-09-21T03:31:12.352Z,100876.67
2022-09-21T03:33:16.761Z,100876.83
2022-09-21T03:35:21.154Z,100878.66
2022-09-21T03:37:25.510Z,100883.65
2022-09-21T03:39:29.896Z,100880.55
2022-09-21T03:41:34.252Z,100883.14
2022-09-21T03:43:38.624Z,100880.63
2022-09-21T03:45:42.992Z,100883.73
2022-09-21T03:47:47.354Z,100889.91
2022-09-21T03:49:51.700Z,100887.45
2022-09-21T03:51:56.046Z,100886.2
2022-09-21T03:54:00.400Z,100887.34
2022-09-21T03:56:04.757Z,100887.41
2022-09-21T03:58:09.110Z,100892.07
2022-09-21T04:00:13.469Z,100892.27
2022-09-21T04:02:17.979Z,100896.13
2022-09-21T04:04:22.401Z,100891.55
2022-09-21T04:06:26.779Z,100895.19
2022-09-21T04:08:31.137Z,100895.19
2022-09-21T04:10:35.528Z,100896.73
2022-09-21T04:12:39.919Z,100900.7
2022-09-21T04:14:44.363Z,100899.59
2022-09-21T04:16:48.725Z,100900.3
2022-09-21T04:18:53.062Z,100901.91
2022-09-21T04:20:57.409Z,100901.76
2022-09-21T04:23:01.765Z,100902.23
2022-09-21T04:25:06.155Z,100904.88
2022-09-21T04:27:10.526Z,100907.43
2022-09-21T04:29:14.995Z,100906.25
2022-09-21T04:31:19.422Z,100909.13
2022-09-21T04:33:23.886Z,100907.27
2022-09-21T04:35:28.304Z,100909.38
2022-09-21T04:37:32.735Z,100916.53
2022-09-21T04:39:37.083Z,100918.23
2022-09-21T04:41:41.429Z,100912.21
2022-09-21T04:43:45.754Z,100915.92
2022-09-21T04:45:50.155Z,100908.52
2022-09-21T04:47:54.605Z,100912.95
2022-09-21T04:49:58.962Z,100914.79
2022-09-21T04:52:03.349Z,100913.31
2022-09-21T04:54:07.695Z,100915
2022-09-21T04:56:12.081Z,100919.61
2022-09-21T04:58:16.441Z,100911.5
2022-09-21T05:00:24.737Z,100915.52
2022-09-21T05:02:29.145Z,100915.64
2022-09-21T05:04:33.498Z,100917.23
2022-09-21T05:06:37.873Z,100916.52
2022-09-21T05:08:42.255Z,100916.85
2022-09-21T05:10:46.611Z,100920.44
2022-09-21T05:12:50.985Z,100916.45
2022-09-21T05:14:55.412Z,100919.48
2022-09-21T05:16:59.780Z,100915.38
2022-09-21T05:19:04.129Z,100917.41
2022-09-21T05:21:08.769Z,100919.78
2022-09-21T05:23:17.677Z,100918.12
2022-09-21T05:25:22.102Z,100921.02
2022-09-21T05:27:26.479Z,100925.42
2022-09-21T05:29:30.890Z,100929.67
2022-09-21T05:31:35.381Z,100930.53
2022-09-21T05:33:39.837Z,100933.58
2022-09-21T05:35:44.246Z,100939.95
2022-09-21T05:37:48.609Z,100938.55
2022-09-21T05:39:53.002Z,100942.59
2022-09-21T05:41:57.330Z,100946.03
2022-09-21T05:44:01.717Z,100942.85
2022-09-21T05:46:06.207Z,100950.5
2022-09-21T05:48:10.636Z,100947.86
2022-09-21T05:50:15.079Z,100944.86
2022-09-21T05:52:19.457Z,100948.61
2022-09-21T05:54:23.841Z,100944.78
2022-09-21T05:56:28.455Z,100947.61
2022-09-21T05:58:32.818Z,100951.38
2022-09-21T06:00:37.192Z,100956.52
2022-09-21T06:02:41.779Z,100955.83
2022-09-21T06:04:46.295Z,100958.04
2022-09-21T06:06:50.747Z,100960.41
2022-09-21T06:08:55.110Z,100962.31
2022-09-21T06:10:59.468Z,100965.55
2022-09-21T06:13:03.886Z,100966.31
2022-09-21T06:15:08.252Z,100964.02
2022-09-21T06:17:12.639Z,100963.09
2022-09-21T06:19:17.032Z,100966.47
2022-09-21T06:21:21.399Z,100977.65
2022-09-21T06:23:25.757Z,100972
2022-09-21T06:25:30.110Z,100977.29
2022-09-21T06:27:34.478Z,100980.02
2022-09-21T06:29:38.877Z,100978.41
2022-09-21T06:31:43.280Z,100975.63
2022-09-21T06:33:49.286Z,100976.14
2022-09-21T06:35:53.663Z,100978.13
2022-09-21T06:37:57.982Z,100983.11
2022-09-21T06:40:02.509Z,100983.25
2022-09-21T06:42:07.083Z,100978.73
2022-09-21T06:44:11.380Z,100984.48
2022-09-21T06:46:15.807Z,100981.84
2022-09-21T06:48:20.256Z,100992.63
2022-09-21T06:50:24.514Z,100999.44
2022-09-21T06:52:28.777Z,100996.91
2022-09-21T06:54:33.087Z,101001.63
2022-09-21T06:56:37.549Z,100994.22
2022-09-21T06:58:41.858Z,100988.33
2022-09-21T07:00:46.212Z,100993.67
2022-09-21T07:02:50.835Z,101000.25
2022-09-21T07:04:55.206Z,101002
2022-09-21T07:07:04.707Z,101003.46
2022-09-21T07:12:19.295Z,100997.56
2022-09-21T07:14:23.734Z,101001.34
2022-09-21T07:16:28.266Z,101004.67
2022-09-21T07:18:44.334Z,101009.52
2022-09-21T07:20:48.804Z,101013.8
2022-09-21T07:22:53.174Z,101006.64
2022-09-21T07:24:57.587Z,101005.84
2022-09-21T07:27:01.925Z,101003.3
2022-09-21T07:29:06.610Z,101012.03
2022-09-21T07:31:11.138Z,101012.34
2022-09-21T07:33:15.498Z,101010.14
2022-09-21T07:35:19.890Z,101011.42
2022-09-21T07:37:24.253Z,101013.44
2022-09-21T07:39:28.622Z,101017.7
2022-09-21T07:41:33.036Z,101015.76
2022-09-21T07:43:37.432Z,101022.14
2022-09-21T07:45:41.995Z,101022.59
2022-09-21T07:47:46.422Z,101025.88
2022-09-21T07:49:50.813Z,101026.02
2022-09-21T07:51:55.181Z,101023.19
2022-09-21T07:54:04.927Z,101024.16
2022-09-21T07:56:09.330Z,101025.2
2022-09-21T07:58:13.690Z,101023.22
2022-09-21T08:00:18.070Z,101023.88
2022-09-21T08:02:22.549Z,101022.55
2022-09-21T08:04:27.105Z,101021.7
2022-09-21T08:06:31.663Z,101025.45
2022-09-21T08:08:36.033Z,101029.88
2022-09-21T08:10:40.407Z,101028.78
2022-09-21T08:12:44.781Z,101031.48
2022-09-21T08:14:49.187Z,101032.64
2022-09-21T08:16:53.814Z,101036.23
2022-09-21T08:18:58.329Z,101035.95
2022-09-21T08:21:02.705Z,101034.73
2022-09-21T08:23:07.062Z,101033.75
2022-09-21T08:25:11.442Z,101031.67
2022-09-21T08:27:15.961Z,101033.48
2022-09-21T08:29:20.388Z,101031.58
2022-09-21T08:31:24.914Z,101034.61
2022-09-21T08:33:30.777Z,101034.78
2022-09-21T08:35:35.162Z,101034.81
2022-09-21T08:37:39.542Z,101036.31
2022-09-21T08:39:43.926Z,101034.82
2022-09-21T08:41:48.310Z,101038.64
2022-09-21T08:43:52.698Z,101038.4
2022-09-21T08:45:57.086Z,101040.14
2022-09-21T08:48:01.647Z,101034.11
2022-09-21T08:50:06.042Z,101036.09
2022-09-21T08:52:14.377Z,101038.92
2022-09-21T08:54:20.743Z,101043.52
2022-09-21T08:56:53.636Z,101039.47
2022-09-21T08:59:09.135Z,101040.36
2022-09-21T09:01:13.829Z,101044.31
2022-09-21T09:03:18.274Z,101042.11
2022-09-21T09:05:22.739Z,101041.64
2022-09-21T09:07:27.314Z,101042.8
2022-09-21T09:09:31.708Z,101038.41
2022-09-21T09:11:36.157Z,101036.1
2022-09-21T09:13:40.529Z,101036.64
2022-09-21T09:15:45.001Z,101038.28
2022-09-21T09:17:49.498Z,101034.76
2022-09-21T09:19:53.971Z,101038.23
2022-09-21T09:21:58.323Z,101041.04
2022-09-21T09:24:02.700Z,101033.55
2022-09-21T09:26:07.113Z,101032.13
2022-09-21T09:28:11.474Z,101033.86
2022-09-21T09:30:15.830Z,101029.72
2022-09-21T09:32:20.254Z,101032.41
2022-09-21T09:34:24.599Z,101032.9
2022-09-21T09:36:58.588Z,101027.97
2022-09-21T09:39:03.952Z,101026.81
2022-09-21T09:41:08.302Z,101029.55
2022-09-21T09:43:12.686Z,101030.72
2022-09-21T09:45:17.090Z,101031.09
2022-09-21T09:47:21.539Z,101034
2022-09-21T09:49:25.972Z,101031.55
2022-09-21T09:51:30.367Z,101027.47
2022-09-21T09:53:34.739Z,101031.8
2022-09-21T09:55:39.085Z,101028.66
2022-09-21T09:57:43.407Z,101028.67
2022-09-21T09:59:54.818Z,101030.04
2022-09-21T10:01:59.419Z,101028.69
2022-09-21T10:04:04.023Z,101029.55
2022-09-21T10:06:08.842Z,101027.53
2022-09-21T10:08:13.203Z,101026.77
2022-09-21T10:10:17.595Z,101029.38
2022-09-21T10:12:21.980Z,101027.97
2022-09-21T10:14:26.396Z,101028.27
2022-09-21T10:16:30.967Z,101021.77
2022-09-21T10:18:35.464Z,101022.38
2022-09-21T10:20:39.848Z,101023.02
2022-09-21T10:22:44.233Z,101022.92
2022-09-21T10:24:48.632Z,101024.29
2022-09-21T10:26:52.996Z,101023.13
2022-09-21T10:28:57.364Z,101020.2
2022-09-21T10:31:01.956Z,101017
2022-09-21T10:33:06.421Z,101016.69
2022-09-21T10:35:10.932Z,101016.48
2022-09-21T10:37:15.284Z,101018.27
2022-09-21T10:39:19.792Z,101017.17
2022-09-21T10:41:24.198Z,101013.94
2022-09-21T10:43:28.683Z,101010.94
2022-09-21T10:45:35.372Z,101017.17
2022-09-21T10:47:39.770Z,101010.54
2022-09-21T10:49:44.148Z,101006.09
2022-09-21T10:51:48.577Z,101001.94
2022-09-21T10:53:55.504Z,100997.77
2022-09-21T10:56:17.270Z,100997.07
2022-09-21T10:58:22.542Z,100993.61
2022-09-21T11:00:26.913Z,100995.56
2022-09-21T11:02:31.519Z,100993.76
2022-09-21T11:04:36.061Z,100991.39
2022-09-21T11:06:40.454Z,100989.72
2022-09-21T11:08:44.850Z,100992.77
2022-09-21T11:10:49.256Z,100997.09
2022-09-21T11:12:53.680Z,100992.71
2022-09-21T11:14:58.077Z,100987.41
2022-09-21T11:17:02.417Z,100985.97
2022-09-21T11:19:07.257Z,100982.36
2022-09-21T11:21:11.637Z,100978.39
2022-09-21T11:23:16.052Z,100977.89
2022-09-21T11:25:20.452Z,100973.3
2022-09-21T11:27:24.813Z,100977.26
2022-09-21T11:29:29.345Z,100976.14
2022-09-21T11:31:33.700Z,100975.64
2022-09-21T11:33:38.087Z,100967.13
2022-09-21T11:35:42.466Z,100975
2022-09-21T11:37:46.858Z,100973.41
2022-09-21T11:39:51.225Z,100972.55
2022-09-21T11:41:55.640Z,100969.55
2022-09-21T11:44:03.670Z,100974.26
2022-09-21T11:46:10.319Z,100967.91
2022-09-21T11:48:14.767Z,100969.22
2022-09-21T11:50:34.714Z,100966.55
2022-09-21T11:52:39.092Z,100964.65
2022-09-21T11:54:43.490Z,100963.73
2022-09-21T11:56:47.932Z,100961.03
2022-09-21T11:58:59.364Z,100963.83
2022-09-21T12:01:03.749Z,100963.9
2022-09-21T12:03:08.182Z,100961.61
2022-09-21T12:05:12.595Z,100959.2
2022-09-21T12:07:17.083Z,100956.59
2022-09-21T12:09:21.502Z,100959.98
2022-09-21T12:11:25.943Z,100961.95
2022-09-21T12:13:30.291Z,100956.98
2022-09-21T12:15:34.724Z,100955.09
2022-09-21T12:17:39.139Z,100953.91
2022-09-21T12:19:43.559Z,100952.44
2022-09-21T12:21:47.986Z,100950.63
2022-09-21T12:23:52.374Z,100950.63
2022-09-21T12:25:56.748Z,100948.72
2022-09-21T12:28:01.153Z,100947.52
2022-09-21T12:30:05.579Z,100950.7
2022-09-21T12:32:09.986Z,100948
2022-09-21T12:34:14.372Z,100944.73
2022-09-21T12:36:18.720Z,100942.64
2022-09-21T12:38:23.389Z,100941.08
2022-09-21T12:40:28.113Z,100944.39
2022-09-21T12:42:32.702Z,100943.88
2022-09-21T12:44:37.094Z,100942.03
2022-09-21T12:46:42.820Z,100944.83
2022-09-21T12:48:47.580Z,100940.59
2022-09-21T12:50:51.936Z,100939.88
2022-09-21T12:52:56.409Z,100939.3
2022-09-21T12:55:01.569Z,100940.16
2022-09-21T12:57:45.921Z,100937.25
2022-09-21T13:00:17.924Z,100937.33
2022-09-21T13:02:23.012Z,100935.8
2022-09-21T13:04:27.799Z,100933.33
2022-09-21T13:06:32.215Z,100932.04
2022-09-21T13:08:37.055Z,100936.2
2022-09-21T13:10:41.574Z,100933.09
2022-09-21T13:12:45.961Z,100934.49
2022-09-21T13:14:50.389Z,100932.14
2022-09-21T13:16:54.772Z,100930.84
2022-09-21T13:18:59.319Z,100929.61
2022-09-21T13:21:03.715Z,100932.47
2022-09-21T13:23:08.133Z,100932.47
2022-09-21T13:25:12.570Z,100929.83
2022-09-21T13:27:17.162Z,100933.69
2022-09-21T13:29:21.609Z,100935.26
2022-09-21T13:31:41.689Z,100930.59
2022-09-21T13:33:46.774Z,100935.73
2022-09-21T13:35:51.328Z,100934.58
2022-09-21T13:37:55.724Z,100936.59
2022-09-21T13:40:00.518Z,100935.75
2022-09-21T13:42:05.360Z,100937.52
2022-09-21T13:44:10.384Z,100938.34
2022-09-21T13:46:15.375Z,100938.14
2022-09-21T13:48:19.994Z,100937.09
2022-09-21T13:50:24.433Z,100933.2
2022-09-21T13:52:28.840Z,100931.39
2022-09-21T13:54:33.391Z,100932.01
2022-09-21T13:56:37.825Z,100933.3
2022-09-21T13:58:42.229Z,100931.86
2022-09-21T14:00:46.811Z,100931.55
2022-09-21T14:02:51.528Z,100928.72
2022-09-21T14:04:56.084Z,100926.42
2022-09-21T14:07:00.498Z,100924.78
2022-09-21T14:09:05.141Z,100922.63
2022-09-21T14:11:09.759Z,100917.95
2022-09-21T14:13:14.167Z,100915.79
2022-09-21T14:15:18.550Z,100915.85
2022-09-21T14:17:24.500Z,100910.56
2022-09-21T14:19:29.821Z,100915.5
2022-09-21T14:21:34.289Z,100913.22
2022-09-21T14:23:38.697Z,100912.36
2022-09-21T14:25:43.149Z,100915.8
2022-09-21T14:27:51.466Z,100913.81
2022-09-21T14:29:57.326Z,100909.98
2022-09-21T14:32:01.920Z,100908.14
2022-09-21T14:34:06.428Z,100913.11
2022-09-21T14:36:10.819Z,100906.39
2022-09-21T14:38:15.280Z,100904.16
2022-09-21T14:40:19.828Z,100905
2022-09-21T14:42:24.364Z,100899
2022-09-21T14:44:28.766Z,100901.45
2022-09-21T14:46:33.325Z,100896.41
2022-09-21T14:48:37.901Z,100900.36
2022-09-21T14:50:42.319Z,100900.83
2022-09-21T14:52:46.696Z,100896.57
2022-09-21T14:54:51.122Z,100904.55
2022-09-21T14:56:55.572Z,100898.34
2022-09-21T14:58:59.986Z,100893.17
2022-09-21T15:01:04.572Z,100898.35
2022-09-21T15:03:09.134Z,100893.13
2022-09-21T15:05:13.546Z,100889.04
2022-09-21T15:07:17.927Z,100890.78
2022-09-21T15:09:22.311Z,100889.61
2022-09-21T15:11:26.745Z,100889.72
2022-09-21T15:13:31.158Z,100884.72
2022-09-21T15:15:35.729Z,100882.14
2022-09-21T15:17:40.146Z,100882.39
2022-09-21T15:19:44.611Z,100882.83
2022-09-21T15:21:49.087Z,100882.19
2022-09-21T15:23:53.539Z,100886.32
2022-09-21T15:25:58.006Z,100881.45
2022-09-21T15:28:02.450Z,100879.23
2022-09-21T15:30:06.971Z,100882.95
2022-09-21T15:32:11.353Z,100882.95
2022-09-21T15:34:15.782Z,100888.52
2022-09-21T15:36:20.152Z,100890.8
2022-09-21T15:38:24.624Z,100891.1
2022-09-21T15:40:29.160Z,100888.89
2022-09-21T15:42:33.802Z,100883.81
2022-09-21T15:44:38.657Z,100888.59
2022-09-21T15:46:43.227Z,100887.16
2022-09-21T15:48:47.754Z,100891.76
2022-09-21T15:50:52.140Z,100893.81
2022-09-21T15:52:56.576Z,100894.91
2022-09-21T15:55:00.975Z,100898.93
2022-09-21T15:57:09.231Z,100903.13
2022-09-21T15:59:13.784Z,100904.73
2022-09-21T16:01:18.395Z,100900.58
2022-09-21T16:03:23.228Z,100906.09
2022-09-21T16:05:27.754Z,100904.36
2022-09-21T16:07:32.153Z,100903.54
2022-09-21T16:09:36.647Z,100903.98
2022-09-21T16:11:41.059Z,100903.92
2022-09-21T16:13:45.434Z,100901.84
2022-09-21T16:15:50.040Z,100905.86
2022-09-21T16:17:54.550Z,100904.47
2022-09-21T16:19:58.983Z,100908.39
2022-09-21T16:22:03.513Z,100905.83
2022-09-21T16:24:08.017Z,100907.61
2022-09-21T16:26:12.530Z,100906.45
2022-09-21T16:28:17.006Z,100909.34
2022-09-21T16:30:21.630Z,100911.84
2022-09-21T16:32:26.038Z,100914.19
2022-09-21T16:34:30.443Z,100915.15
2022-09-21T16:36:34.842Z,100922.34
2022-09-21T16:38:39.251Z,100925.73
2022-09-21T16:40:43.874Z,100925.8
2022-09-21T16:42:48.411Z,100927.53
2022-09-21T16:44:52.809Z,100929.68
2022-09-21T16:46:57.418Z,100932.17
2022-09-21T16:49:01.969Z,100936.44
2022-09-21T16:51:06.422Z,100932.07
2022-09-21T16:53:10.827Z,100935.86
2022-09-21T16:55:15.245Z,100935.73
2022-09-21T16:57:19.710Z,100935.15
2022-09-21T16:59:24.137Z,100937.02
2022-09-21T17:01:28.901Z,100939.48
2022-09-21T17:03:33.533Z,100942.55
2022-09-21T17:05:37.905Z,100940.78
2022-09-21T17:07:42.306Z,100940.98
2022-09-21T17:09:46.763Z,100938.42
2022-09-21T17:11:51.623Z,100937.84
2022-09-21T17:13:56.083Z,100943.17
2022-09-21T17:16:00.593Z,100947.95
2022-09-21T17:18:05.291Z,100958.3
2022-09-21T17:20:09.890Z,100957.68
2022-09-21T17:22:14.522Z,100957.27
2022-09-21T17:24:50.623Z,100957.58
2022-09-21T17:26:56.326Z,100958.02
2022-09-21T17:29:00.804Z,100961.13
2022-09-21T17:31:05.403Z,100966.45
2022-09-21T17:33:09.951Z,100961.46
2022-09-21T17:35:14.571Z,100966.55
2022-09-21T17:37:19.180Z,100966.55
2022-09-21T17:39:23.784Z,100969.62
2022-09-21T17:41:28.187Z,100975.66
2022-09-21T17:43:32.623Z,100972.21
2022-09-21T17:45:37.268Z,100971.13
2022-09-21T17:47:41.770Z,100975.91
2022-09-21T17:49:46.261Z,100974.3
2022-09-21T17:51:50.799Z,100976.55
2022-09-21T17:53:55.571Z,100976
2022-09-21T17:56:00.071Z,100978.59
2022-09-21T17:58:04.736Z,100980.88
2022-09-21T18:00:09.784Z,100981.91
2022-09-21T18:02:14.543Z,100978.63
2022-09-21T18:04:19.088Z,100980.22
2022-09-21T18:06:23.816Z,100985.34
2022-09-21T18:08:28.283Z,100981.69
2022-09-21T18:10:32.870Z,100986.8
2022-09-21T18:12:39.268Z,100985.58
2022-09-21T18:14:44.947Z,100986.7
2022-09-21T18:16:49.594Z,100987.28
2022-09-21T18:18:54.566Z,100985.98
2022-09-21T18:20:59.766Z,100984.97
2022-09-21T18:23:04.393Z,100983.27
2022-09-21T18:25:08.863Z,100987.78
2022-09-21T18:27:13.463Z,100991
2022-09-21T18:29:41.035Z,100995.27
2022-09-21T18:31:46.151Z,100990.63
2022-09-21T18:33:50.792Z,100991.17
2022-09-21T18:35:55.396Z,100994.31
2022-09-21T18:38:00.325Z,100997.8
2022-09-21T18:40:05.134Z,100996.13
2022-09-21T18:42:09.831Z,101002.74
2022-09-21T18:44:14.396Z,101002.81
2022-09-21T18:46:19.474Z,101004.55
2022-09-21T18:48:24.237Z,101005.27
2022-09-21T18:50:28.872Z,101005.75
2022-09-21T18:52:33.339Z,101005.27
2022-09-21T18:54:38.134Z,101007.83
2022-09-21T18:56:42.645Z,101012.13
2022-09-21T18:58:47.284Z,101008.75
2022-09-21T19:00:51.961Z,101004.11
2022-09-21T19:03:18.721Z,101005.3
2022-09-21T19:05:24.256Z,101007.1
2022-09-21T19:07:30.362Z,101003.31
2022-09-21T19:09:34.978Z,101005.63
2022-09-21T19:11:39.527Z,101006.35
2022-09-21T19:13:44.294Z,101011.84
2022-09-21T19:16:01.863Z,101006.89
2022-09-21T19:18:06.645Z,101003.14
2022-09-21T19:20:11.556Z,101003.75
2022-09-21T19:22:16.055Z,101010.04
2022-09-21T19:24:20.579Z,101003.24
2022-09-21T19:26:27.302Z,101004.75
2022-09-21T19:28:31.867Z,101009.63
2022-09-21T19:30:36.698Z,101007.69
2022-09-21T19:32:41.719Z,101006.62
2022-09-21T19:34:46.224Z,101007.32
2022-09-21T19:36:51.206Z,101006.52
2022-09-21T19:38:56.131Z,101003.84
2022-09-21T19:41:02.190Z,101003.94
2022-09-21T19:43:06.931Z,101001.33
2022-09-21T19:45:12.477Z,101000.56
2022-09-21T19:47:17.002Z,100998.37
2022-09-21T19:49:21.595Z,100995.95
2022-09-21T19:51:26.165Z,100996.88
2022-09-21T19:53:30.747Z,100995.09
2022-09-21T19:55:35.248Z,100992.33
2022-09-21T19:57:39.768Z,100995.16
2022-09-21T19:59:44.283Z,100992.89
2022-09-21T20:01:48.943Z,100992.71
2022-09-21T20:03:53.523Z,100991.95
2022-09-21T20:05:57.973Z,100991.16
2022-09-21T20:08:02.433Z,100992.88
2022-09-21T20:10:06.924Z,100989.36
2022-09-21T20:12:11.375Z,100991.86
2022-09-21T20:14:15.756Z,100993.7
2022-09-21T20:16:20.579Z,100987.7
2022-09-21T20:18:25.179Z,100989.33
2022-09-21T20:20:29.555Z,100986.7
2022-09-21T20:22:34.001Z,100990.07
2022-09-21T20:24:38.390Z,100987.52
2022-09-21T20:26:42.784Z,100983.49
2022-09-21T20:28:47.227Z,100984.34
2022-09-21T20:30:51.854Z,100986.45
2022-09-21T20:32:56.472Z,100983.86
2022-09-21T20:35:00.887Z,100985.72
2022-09-21T20:37:05.331Z,100984.86
2022-09-21T20:39:09.772Z,100987.95
2022-09-21T20:41:14.225Z,100987.37
2022-09-21T20:43:18.666Z,100987.56
2022-09-21T20:45:23.117Z,100989.59
2022-09-21T20:47:27.551Z,100988.27
2022-09-21T20:49:31.941Z,100987.38
2022-09-21T20:51:36.391Z,100981.73
2022-09-21T20:53:40.800Z,100984.5
2022-09-21T20:55:45.181Z,100981.52
2022-09-21T20:57:49.582Z,100981.63
2022-09-21T20:59:54.012Z,100979.03
2022-09-21T21:01:58.403Z,100981.34
2022-09-21T21:04:03.066Z,100984.76
2022-09-21T21:06:07.724Z,100986.21
2022-09-21T21:08:12.122Z,100987.68
2022-09-21T21:10:16.556Z,100986.28
2022-09-21T21:12:20.947Z,100983.45
2022-09-21T21:14:25.388Z,100990.38
2022-09-21T21:16:30.106Z,100991.4
2022-09-21T21:18:34.641Z,100988.09
2022-09-21T21:20:39.058Z,100982.31
2022-09-21T21:22:43.515Z,100983.67
2022-09-21T21:24:47.946Z,100987.02
2022-09-21T21:27:03.527Z,100989.42
2022-09-21T21:29:08.119Z,100984.83
2022-09-21T21:31:12.604Z,100983.96
2022-09-21T21:33:20.580Z,100987.42
2022-09-21T21:35:25.043Z,100985.13
2022-09-21T21:37:29.408Z,100983.11
2022-09-21T21:39:33.796Z,100981.27
2022-09-21T21:41:38.210Z,100979.05
2022-09-21T21:43:42.621Z,100973.63
2022-09-21T21:45:47.132Z,100975.55
2022-09-21T21:47:51.753Z,100970.67
2022-09-21T21:49:56.163Z,100966.68
2022-09-21T21:52:00.619Z,100964.27
2022-09-21T21:54:05.051Z,100961.66
2022-09-21T21:56:09.908Z,100964.42
2022-09-21T21:58:14.268Z,100961.66
2022-09-21T22:00:18.674Z,100954.91
2022-09-21T22:02:23.163Z,100956.3
2022-09-21T22:04:29.095Z,100960
2022-09-21T22:06:33.481Z,100960.64
2022-09-21T22:08:37.874Z,100958.46
2022-09-21T22:10:42.290Z,100960.02
2022-09-21T22:12:46.676Z,100951.8
2022-09-21T22:14:51.065Z,100950.75
2022-09-21T22:16:55.745Z,100950.84
2022-09-21T22:19:00.144Z,100950.64
2022-09-21T22:21:04.535Z,100955.84
2022-09-21T22:23:09.023Z,100952.06
2022-09-21T22:25:13.418Z,100953.14
2022-09-21T22:27:17.840Z,100952.53
2022-09-21T22:29:22.208Z,100950.13
2022-09-21T22:31:26.798Z,100952.12
2022-09-21T22:33:34.334Z,100950.1
2022-09-21T22:35:38.744Z,100954.32
2022-09-21T22:37:43.142Z,100955.06
2022-09-21T22:39:47.542Z,100956.05
2022-09-21T22:41:51.947Z,100961.8
2022-09-21T22:43:56.486Z,100963.37
2022-09-21T22:46:01.060Z,100961.55
2022-09-21T22:48:05.539Z,100962.81
2022-09-21T22:50:09.945Z,100959.95
2022-09-21T22:52:14.289Z,100961.93
2022-09-21T22:54:18.719Z,100964.42
2022-09-21T22:56:23.160Z,100963.81
2022-09-21T22:58:27.551Z,100965.58
2022-09-21T23:00:32.146Z,100966.8
2022-09-21T23:02:36.676Z,100966.18
2022-09-21T23:04:41.088Z,100970.98
2022-09-21T23:06:45.509Z,100969.64
2022-09-21T23:08:49.916Z,100969.03
2022-09-21T23:10:54.290Z,100960.06
2022-09-21T23:12:58.717Z,100956.96
2022-09-21T23:15:03.157Z,100961.14
2022-09-21T23:17:07.575Z,100965.98
2022-09-21T23:19:11.940Z,100961.27
2022-09-21T23:21:16.372Z,100963.66
2022-09-21T23:23:20.728Z,100964.56
2022-09-21T23:25:25.178Z,100961.4
2022-09-21T23:27:29.542Z,100958.33
2022-09-21T23:29:33.988Z,100959.45
2022-09-21T23:31:45.240Z,100956.34
2022-09-21T23:33:50.376Z,100958.44
2022-09-21T23:35:54.772Z,100960.92
2022-09-21T23:37:59.186Z,100963.64
2022-09-21T23:40:03.787Z,100955.97
2022-09-21T23:42:08.297Z,100958.63
2022-09-21T23:44:13.091Z,100956.55
2022-09-21T23:46:17.533Z,100955.63
2022-09-21T23:48:22.075Z,100952.72
2022-09-21T23:50:26.494Z,100949.83
2022-09-21T23:52:30.878Z,100953.38
2022-09-21T23:54:35.286Z,100951.97